createdAt,value
2023-03-26T00:01:21.410Z,9.48
2023-03-26T00:03:53.865Z,9.47
2023-03-26T00:06:27.130Z,9.46
2023-03-26T00:08:59.279Z,9.48
2023-03-26T00:11:29.436Z,9.49
2023-03-26T00:13:58.126Z,9.49
2023-03-26T00:16:28.973Z,9.48
2023-03-26T00:18:58.056Z,9.72
2023-03-26T00:21:28.458Z,10.92
2023-03-26T00:23:59.853Z,11.47
2023-03-26T00:26:29.723Z,11.16
2023-03-26T00:29:01.867Z,10.84
2023-03-26T00:31:30.420Z,10.64
2023-03-26T00:33:58.396Z,10.49
2023-03-26T00:36:26.899Z,10.37
2023-03-26T00:38:55.525Z,10.29
2023-03-26T00:41:26.453Z,10.22
2023-03-26T00:43:57.648Z,10.17
2023-03-26T00:46:28.028Z,10.13
2023-03-26T00:48:59.929Z,10.10
2023-03-26T00:51:28.724Z,10.06
2023-03-26T00:53:57.804Z,10.02
2023-03-26T00:56:26.856Z,9.99
2023-03-26T00:58:54.912Z,9.95
2023-03-26T01:01:28.472Z,9.92
2023-03-26T01:04:07.562Z,9.89
2023-03-26T01:06:41.461Z,9.84
2023-03-26T01:09:18.820Z,9.80
2023-03-26T01:11:48.779Z,9.77
2023-03-26T01:14:26.854Z,9.73
2023-03-26T01:16:57.143Z,9.70
2023-03-26T01:19:25.016Z,9.66
2023-03-26T01:21:52.987Z,9.61
2023-03-26T01:24:22.299Z,9.84
2023-03-26T01:27:09.681Z,11.04
2023-03-26T01:30:07.084Z,11.68
2023-03-26T01:32:51.704Z,11.23
2023-03-26T01:35:25.681Z,10.79
2023-03-26T01:38:11.380Z,10.51
2023-03-26T01:40:55.363Z,10.32
2023-03-26T01:43:33.380Z,10.20
2023-03-26T01:46:04.384Z,10.10
2023-03-26T01:48:38.685Z,10.01
2023-03-26T01:51:07.465Z,9.96
2023-03-26T01:53:38.313Z,9.91
2023-03-26T01:56:19.951Z,9.85
2023-03-26T01:59:09.486Z,9.82
2023-03-26T02:02:01.223Z,9.78
2023-03-26T02:04:53.297Z,10.07
2023-03-26T02:07:28.750Z,11.34
2023-03-26T02:09:59.688Z,11.58
2023-03-26T02:12:28.064Z,11.16
2023-03-26T02:14:56.341Z,10.80
2023-03-26T02:17:24.583Z,10.55
2023-03-26T02:19:54.268Z,10.35
2023-03-26T02:22:23.008Z,10.22
2023-03-26T02:24:51.036Z,10.15
2023-03-26T02:27:19.276Z,10.05
2023-03-26T02:29:47.880Z,9.98
2023-03-26T02:32:19.391Z,10.02
2023-03-26T02:34:47.486Z,10.86
2023-03-26T02:37:18.897Z,11.84
2023-03-26T02:39:47.763Z,11.59
2023-03-26T02:42:24.795Z,11.12
2023-03-26T02:44:53.839Z,10.81
2023-03-26T02:47:21.997Z,10.58
2023-03-26T02:49:53.566Z,10.39
2023-03-26T02:52:26.375Z,10.27
2023-03-26T02:54:56.589Z,10.87
2023-03-26T02:57:26.396Z,11.90
2023-03-26T03:00:15.294Z,12.09
2023-03-26T03:03:06.686Z,11.46
2023-03-26T03:05:35.194Z,11.01
2023-03-26T03:08:23.643Z,10.65
2023-03-26T03:11:27.355Z,10.78
2023-03-26T03:13:55.495Z,11.83
2023-03-26T03:16:25.878Z,12.48
2023-03-26T03:18:57.428Z,12.06
2023-03-26T03:21:36.296Z,11.47
2023-03-26T03:24:08.060Z,11.08
2023-03-26T03:26:38.823Z,10.79
2023-03-26T03:29:16.747Z,10.59
2023-03-26T03:31:44.816Z,11.18
2023-03-26T03:34:25.545Z,12.29
2023-03-26T03:36:53.833Z,12.42
2023-03-26T03:39:42.266Z,11.80
2023-03-26T03:42:13.424Z,11.23
2023-03-26T03:44:44.401Z,10.85
2023-03-26T03:47:26.733Z,10.59
2023-03-26T03:49:54.787Z,11.12
2023-03-26T03:52:25.174Z,12.16
2023-03-26T03:54:53.582Z,12.72
2023-03-26T03:57:44.351Z,12.10
2023-03-26T04:00:17.986Z,11.55
2023-03-26T04:02:50.556Z,11.14
2023-03-26T04:05:18.946Z,10.82
2023-03-26T04:07:48.609Z,10.58
2023-03-26T04:10:52.102Z,10.99
2023-03-26T04:13:38.702Z,11.96
2023-03-26T04:16:19.190Z,11.82
2023-03-26T04:18:49.633Z,11.29
2023-03-26T04:21:17.577Z,10.89
2023-03-26T04:23:45.999Z,10.57
2023-03-26T04:26:25.178Z,10.30
2023-03-26T04:29:06.818Z,10.12
2023-03-26T04:31:38.349Z,10.59
2023-03-26T04:34:13.634Z,11.76
2023-03-26T04:36:54.686Z,12.34
2023-03-26T04:39:34.089Z,11.91
2023-03-26T04:42:33.419Z,11.23
2023-03-26T04:45:09.329Z,10.85
2023-03-26T04:47:39.136Z,10.58
2023-03-26T04:50:09.344Z,10.37
2023-03-26T04:52:38.285Z,10.40
2023-03-26T04:55:39.841Z,11.48
2023-03-26T04:58:14.358Z,12.22
2023-03-26T05:01:09.857Z,11.65
2023-03-26T05:03:41.311Z,11.08
2023-03-26T05:06:11.461Z,10.65
2023-03-26T05:08:39.368Z,10.33
2023-03-26T05:11:11.541Z,10.31
2023-03-26T05:13:42.844Z,11.27
2023-03-26T05:16:12.559Z,12.33
2023-03-26T05:18:53.107Z,12.97
2023-03-26T05:21:25.836Z,12.45
2023-03-26T05:23:54.063Z,11.81
2023-03-26T05:26:22.990Z,11.35
2023-03-26T05:28:52.797Z,11.02
2023-03-26T05:31:41.391Z,10.74
2023-03-26T05:34:09.590Z,10.54
2023-03-26T05:36:37.954Z,10.42
2023-03-26T05:39:27.072Z,11.25
2023-03-26T05:42:10.334Z,12.38
2023-03-26T05:44:54.289Z,12.74
2023-03-26T05:47:26.394Z,12.20
2023-03-26T05:49:54.599Z,11.63
2023-03-26T05:52:23.007Z,11.24
2023-03-26T05:55:29.201Z,10.89
2023-03-26T05:58:15.953Z,10.68
2023-03-26T06:01:08.677Z,10.54
2023-03-26T06:03:57.037Z,11.22
2023-03-26T06:06:28.904Z,12.36
2023-03-26T06:09:01.767Z,12.84
2023-03-26T06:11:35.066Z,12.39
2023-03-26T06:14:05.729Z,11.81
2023-03-26T06:16:34.371Z,11.39
2023-03-26T06:19:38.023Z,11.02
2023-03-26T06:22:24.864Z,10.78
2023-03-26T06:25:24.932Z,11.38
2023-03-26T06:28:06.190Z,12.49
2023-03-26T06:30:53.968Z,13.05
2023-03-26T06:33:51.484Z,12.46
2023-03-26T06:36:19.665Z,11.90
2023-03-26T06:38:50.705Z,11.46
2023-03-26T06:41:18.705Z,11.13
2023-03-26T06:44:16.101Z,10.88
2023-03-26T06:47:02.732Z,10.83
2023-03-26T06:49:49.386Z,11.73
2023-03-26T06:52:20.000Z,12.30
2023-03-26T06:55:10.454Z,11.93
2023-03-26T06:57:51.311Z,11.56
2023-03-26T07:00:38.801Z,11.31
2023-03-26T07:03:25.830Z,11.13
2023-03-26T07:06:12.282Z,11.00
2023-03-26T07:08:59.066Z,10.90
2023-03-26T07:11:32.167Z,10.92
2023-03-26T07:14:18.948Z,11.04
2023-03-26T07:17:10.748Z,11.15
2023-03-26T07:19:49.243Z,11.13
2023-03-26T07:22:23.296Z,11.12
2023-03-26T07:25:11.054Z,11.12
2023-03-26T07:28:06.544Z,11.06
2023-03-26T07:31:03.909Z,10.99
2023-03-26T07:33:50.575Z,10.95
2023-03-26T07:36:57.915Z,10.89
2023-03-26T07:40:15.175Z,10.84
2023-03-26T07:43:13.567Z,10.82
2023-03-26T07:46:01.211Z,11.81
2023-03-26T07:48:54.989Z,12.66
2023-03-26T07:51:43.563Z,12.39
2023-03-26T07:54:29.035Z,12.01
2023-03-26T07:58:21.563Z,11.72
2023-03-26T08:01:23.219Z,11.49
2023-03-26T08:04:23.174Z,11.38
2023-03-26T08:07:31.275Z,11.27
2023-03-26T08:10:27.682Z,11.27
2023-03-26T08:13:29.590Z,11.20
2023-03-26T08:16:08.980Z,11.06
2023-03-26T08:18:56.861Z,11.31
2023-03-26T08:21:31.933Z,12.41
2023-03-26T08:24:13.341Z,13.26
2023-03-26T08:27:08.828Z,12.92
2023-03-26T08:29:45.315Z,12.13
2023-03-26T08:32:16.335Z,11.57
2023-03-26T08:34:45.455Z,11.15
2023-03-26T08:37:13.674Z,11.03
2023-03-26T08:39:42.548Z,11.85
2023-03-26T08:42:46.166Z,12.61
2023-03-26T08:45:36.141Z,13.18
2023-03-26T08:48:35.622Z,12.39
2023-03-26T08:51:13.766Z,11.66
2023-03-26T08:54:13.368Z,11.23
2023-03-26T08:57:03.954Z,11.20
2023-03-26T08:59:47.180Z,12.54
2023-03-26T14:02:42.612Z,16.42
2023-03-26T14:05:28.631Z,16.47
2023-03-26T14:08:52.417Z,16.42
2023-03-26T14:11:28.238Z,16.28
2023-03-26T14:14:10.953Z,16.21
2023-03-26T14:16:47.191Z,16.17
2023-03-26T14:19:34.028Z,16.09
2023-03-26T14:22:18.348Z,15.96
2023-03-26T14:25:02.752Z,16.03
2023-03-26T14:27:51.743Z,16.19
2023-03-26T14:30:49.104Z,16.31
2023-03-26T14:33:55.538Z,16.45
2023-03-26T14:36:54.757Z,16.98
2023-03-26T14:39:38.671Z,17.63
2023-03-26T14:42:15.393Z,18.44
2023-03-26T14:44:56.751Z,19.51
2023-03-26T14:47:25.378Z,21.12
2023-03-26T14:50:28.818Z,22.33
2023-03-26T14:53:01.355Z,22.89
2023-03-26T14:56:13.722Z,23.74
2023-03-26T14:59:18.978Z,24.26
2023-03-26T15:02:25.277Z,24.49
2023-03-26T15:05:07.238Z,23.49
2023-03-26T15:07:51.134Z,22.19
2023-03-26T15:10:47.287Z,21.08
2023-03-26T15:13:56.312Z,20.11
2023-03-26T15:16:46.407Z,19.25
2023-03-26T15:19:23.548Z,18.43
2023-03-26T15:22:36.255Z,17.74
2023-03-26T15:25:09.899Z,17.05
2023-03-26T15:28:21.519Z,16.56
2023-03-26T15:31:19.172Z,16.02
2023-03-26T15:34:08.939Z,15.65
2023-03-26T15:37:05.276Z,15.35
2023-03-26T15:40:08.112Z,15.10
2023-03-26T15:43:03.041Z,14.91
2023-03-26T15:45:41.389Z,14.78
2023-03-26T15:48:12.439Z,14.68
2023-03-26T15:51:26.138Z,14.59
2023-03-26T15:54:23.758Z,14.54
2023-03-26T15:57:03.244Z,14.53
2023-03-26T15:59:52.483Z,14.53
2023-03-26T16:02:43.878Z,14.48
2023-03-26T16:05:33.600Z,14.42
2023-03-26T16:08:19.101Z,14.33
2023-03-26T16:11:08.203Z,14.29
2023-03-26T16:13:41.284Z,14.20
2023-03-26T16:17:13.086Z,14.11
2023-03-26T16:20:20.254Z,13.98
2023-03-26T16:22:55.015Z,13.86
2023-03-26T16:25:28.674Z,13.70
2023-03-26T16:28:09.594Z,13.58
2023-03-26T16:30:38.297Z,13.50
2023-03-26T16:33:31.996Z,13.46
2023-03-26T16:36:02.020Z,13.41
2023-03-26T16:38:59.537Z,13.37
2023-03-26T16:41:32.567Z,13.29
2023-03-26T16:44:28.336Z,13.22
2023-03-26T16:47:18.557Z,13.17
2023-03-26T16:50:08.984Z,13.13
2023-03-26T16:52:44.139Z,13.06
2023-03-26T16:55:31.072Z,12.98
2023-03-26T16:58:17.231Z,12.94
2023-03-26T17:00:48.597Z,12.90
2023-03-26T17:03:35.564Z,12.87
2023-03-26T17:06:20.910Z,12.86
2023-03-26T17:09:18.070Z,12.86
2023-03-26T17:12:04.779Z,12.86
2023-03-26T17:14:50.217Z,12.85
2023-03-26T17:17:23.831Z,12.82
2023-03-26T17:19:59.559Z,12.80
2023-03-26T17:22:41.941Z,12.77
2023-03-26T17:25:57.524Z,12.74
2023-03-26T17:28:42.772Z,12.72
2023-03-26T17:31:19.812Z,12.71
2023-03-26T17:33:48.121Z,12.70
2023-03-26T17:36:22.147Z,12.70
2023-03-26T17:38:49.998Z,12.69
2023-03-26T17:42:23.244Z,12.67
2023-03-26T17:44:55.992Z,12.65
2023-03-26T17:47:54.029Z,12.61
2023-03-26T17:50:50.896Z,12.57
2023-03-26T17:53:38.610Z,12.52
2023-03-26T17:56:16.873Z,12.50
2023-03-26T17:58:50.885Z,12.47
2023-03-26T18:01:37.097Z,12.44
2023-03-26T18:04:19.954Z,12.39
2023-03-26T18:07:06.764Z,12.35
2023-03-26T18:10:06.794Z,12.33
2023-03-26T18:12:42.520Z,12.29
2023-03-26T18:15:30.594Z,12.27
2023-03-26T18:18:46.636Z,12.21
2023-03-26T18:21:33.699Z,12.16
2023-03-26T18:24:03.999Z,12.11
2023-03-26T18:26:42.081Z,12.09
2023-03-26T18:29:17.443Z,12.07
2023-03-26T18:31:46.783Z,12.06
2023-03-26T18:34:19.711Z,12.04
2023-03-26T18:37:10.253Z,12.04
2023-03-26T18:45:32.334Z,12.03
2023-03-26T18:48:13.794Z,11.98
2023-03-26T18:50:42.467Z,11.96
2023-03-26T18:53:20.729Z,11.94
2023-03-26T18:55:50.791Z,11.93
2023-03-26T18:58:27.582Z,11.91
2023-03-26T19:01:04.346Z,11.90
2023-03-26T19:03:39.979Z,11.88
2023-03-26T19:06:11.063Z,11.86
2023-03-26T19:08:42.562Z,11.82
2023-03-26T19:11:12.052Z,11.78
2023-03-26T19:13:44.282Z,11.76
2023-03-26T19:16:24.411Z,11.73
2023-03-26T19:18:52.881Z,11.71
2023-03-26T19:21:23.316Z,11.69
2023-03-26T19:23:52.315Z,11.68
2023-03-26T19:26:22.913Z,11.67
2023-03-26T19:28:53.817Z,11.65
2023-03-26T19:31:30.385Z,11.65
2023-03-26T19:34:00.681Z,11.64
2023-03-26T19:36:32.142Z,11.60
2023-03-26T19:39:02.609Z,11.53
2023-03-26T19:41:32.133Z,11.46
2023-03-26T19:44:03.425Z,11.37
2023-03-26T19:46:53.896Z,11.31
2023-03-26T19:49:42.589Z,11.26
2023-03-26T19:52:18.450Z,11.15
2023-03-26T19:55:01.361Z,11.07
2023-03-26T19:57:36.453Z,11.00
2023-03-26T20:00:13.748Z,10.92
2023-03-26T20:02:43.362Z,10.85
2023-03-26T20:05:26.446Z,10.79
2023-03-26T20:07:58.478Z,10.76
2023-03-26T20:10:27.630Z,10.75
2023-03-26T20:12:56.253Z,10.74
2023-03-26T20:15:28.680Z,10.96
2023-03-26T20:17:57.092Z,12.26
2023-03-26T20:20:27.233Z,13.61
2023-03-26T20:22:55.804Z,14.34
2023-03-26T20:25:29.996Z,13.94
2023-03-26T20:27:59.549Z,13.37
2023-03-26T20:33:12.962Z,12.60
2023-03-26T20:35:46.648Z,12.34
2023-03-26T20:38:19.814Z,12.15
2023-03-26T20:40:49.687Z,11.98
2023-03-26T20:43:22.536Z,11.84
2023-03-26T20:45:52.617Z,11.72
2023-03-26T20:48:21.000Z,11.63
2023-03-26T20:50:50.936Z,11.55
2023-03-26T20:53:20.879Z,11.48
2023-03-26T20:55:51.021Z,11.41
2023-03-26T20:58:31.341Z,11.36
2023-03-26T21:01:02.079Z,11.30
2023-03-26T21:03:31.448Z,11.26
2023-03-26T21:06:07.677Z,11.22
2023-03-26T21:08:37.305Z,11.17
2023-03-26T21:11:27.411Z,11.12
2023-03-26T21:14:08.692Z,11.08
2023-03-26T21:16:37.581Z,11.05
2023-03-26T21:19:05.847Z,10.99
2023-03-26T21:21:46.570Z,10.94
2023-03-26T21:24:33.542Z,10.89
2023-03-26T21:27:16.464Z,10.84
2023-03-26T21:29:45.633Z,10.80
2023-03-26T21:32:14.781Z,10.75
2023-03-26T21:34:55.709Z,10.69
2023-03-26T21:37:28.209Z,10.68
2023-03-26T21:39:58.174Z,10.65
2023-03-26T21:42:29.497Z,10.64
2023-03-26T21:44:58.239Z,10.62
2023-03-26T21:47:27.478Z,10.59
2023-03-26T21:49:56.036Z,10.54
2023-03-26T21:52:25.370Z,10.49
2023-03-26T21:54:56.743Z,10.73
2023-03-26T21:57:45.904Z,12.06
2023-03-26T22:00:18.436Z,13.54
2023-03-26T22:03:20.158Z,14.18
2023-03-26T22:06:07.351Z,13.50
2023-03-26T22:08:38.956Z,12.85
2023-03-26T22:11:09.734Z,12.43
2023-03-26T22:13:39.762Z,12.09
2023-03-26T22:16:10.794Z,11.81
2023-03-26T22:18:39.697Z,11.59
2023-03-26T22:21:08.104Z,11.40
2023-03-26T22:23:38.815Z,11.24
2023-03-26T22:26:07.413Z,11.12
2023-03-26T22:28:37.085Z,11.02
2023-03-26T22:31:08.525Z,10.92
2023-03-26T22:33:40.243Z,10.82
2023-03-26T22:36:22.186Z,10.71
2023-03-26T22:38:54.120Z,10.61
2023-03-26T22:41:22.812Z,10.54
2023-03-26T22:43:54.830Z,10.48
2023-03-26T22:46:24.184Z,10.40
2023-03-26T22:48:53.866Z,10.36
2023-03-26T22:51:23.227Z,10.60
2023-03-26T22:53:51.255Z,11.90
2023-03-26T22:56:20.363Z,13.18
2023-03-26T22:58:48.817Z,13.87
2023-03-26T23:01:20.548Z,13.47
2023-03-26T23:03:50.597Z,12.87
2023-03-26T23:06:21.802Z,12.45
2023-03-26T23:08:51.295Z,12.19
2023-03-26T23:11:22.580Z,12.00
2023-03-26T23:13:51.735Z,11.84
2023-03-26T23:16:21.979Z,11.71
2023-03-26T23:18:50.036Z,11.59
2023-03-26T23:21:21.471Z,11.46
2023-03-26T23:23:52.258Z,11.34
2023-03-26T23:26:20.507Z,11.22
2023-03-26T23:28:51.534Z,11.12
2023-03-26T23:31:19.535Z,11.00
2023-03-26T23:33:50.787Z,10.87
2023-03-26T23:36:20.988Z,10.80
2023-03-26T23:38:49.278Z,10.75
2023-03-26T23:41:21.991Z,10.71
2023-03-26T23:43:53.945Z,10.92
2023-03-26T23:46:26.010Z,12.27
2023-03-26T23:48:55.000Z,13.56
2023-03-26T23:51:24.259Z,14.22
2023-03-26T23:53:53.845Z,13.73
2023-03-26T23:56:22.769Z,13.11
2023-03-26T23:58:51.173Z,12.65
